CDT,Max TemperatureF,Mean TemperatureF,Min TemperatureF,Max Dew PointF,MeanDew PointF,Min DewpointF,Max Humidity, Mean Humidity, Min Humidity, Max Sea Level PressureIn, Mean Sea Level PressureIn, Min Sea Level PressureIn, Max VisibilityMiles, Mean VisibilityMiles, Min VisibilityMiles, Max Wind SpeedMPH, Mean Wind SpeedMPH, Max Gust SpeedMPH,PrecipitationIn, CloudCover, Events, WindDirDegrees
2011-10-1,76,61,46,37,35,34,65,44,23,30.27,30.20,30.15,10,10,10,17,9,22,0.00,0,,166
2011-10-2,80,63,45,39,37,35,70,46,21,30.20,30.13,30.06,10,10,10,18,9,30,0.00,0,,169
2011-10-3,83,67,50,44,42,38,68,46,24,30.10,30.06,30.01,10,10,10,18,10,24,0.00,0,,151
2011-10-4,89,72,54,46,44,41,71,46,21,30.06,30.01,29.95,10,10,10,22,12,32,0.00,0,,168
2011-10-5,82,68,54,43,41,37,61,41,21,30.02,29.94,29.86,10,10,10,29,14,38,0.00,0,,167
2011-10-6,80,67,54,57,48,43,80,58,36,29.89,29.79,29.68,10,9,2,35,19,47,0.29,3,Rain,157
2011-10-7,82,75,67,62,56,44,68,54,40,29.87,29.80,29.69,10,10,10,29,16,44,T,5,Thunderstorm,173
2011-10-8,71,65,59,61,58,54,90,78,66,30.10,29.97,29.83,10,8,1,22,8,31,0.73,8,Rain-Thunderstorm,35
2011-10-9,62,57,52,59,56,51,97,95,93,30.10,30.05,29.98,10,8,2,17,6,24,0.30,8,Rain,169
2011-10-10,69,59,48,52,49,47,100,74,47,30.06,30.01,29.91,10,8,0,13,6,17,0.00,4,Fog,195
2011-10-11,70,60,50,56,53,48,100,81,61,29.91,29.79,29.70,10,8,0,12,6,16,T,5,Fog-Rain-Thunderstorm,188
2011-10-12,70,57,43,52,46,39,100,70,40,29.93,29.77,29.69,10,5,0,29,11,37,0.00,1,Fog,308
2011-10-13,72,58,43,39,35,30,76,49,22,29.96,29.91,29.83,10,10,10,21,10,25,0.00,0,,299
2011-10-14,64,52,39,37,32,26,73,50,27,30.10,30.03,29.92,10,10,10,24,9,28,0.00,0,,335
2011-10-15,76,57,38,45,38,30,79,54,29,30.09,29.93,29.73,10,10,10,22,9,31,0.00,0,,206
2011-10-16,62,52,42,46,38,34,83,60,36,30.14,30.02,29.71,10,10,6,21,8,25,0.00,0,,347
2011-10-17,53,48,43,41,37,32,89,69,48,30.17,30.06,29.99,10,10,8,18,9,23,0.02,6,Rain,30
2011-10-18,55,45,35,39,30,25,89,61,32,30.20,30.15,30.09,10,10,10,30,14,37,0.00,1,,328
2011-10-19,53,40,26,32,26,22,82,57,32,30.21,30.15,30.10,10,10,10,22,10,29,0.00,1,,348
2011-10-20,56,39,22,29,25,19,92,64,35,30.16,30.10,30.02,10,10,10,8,3,12,0.00,0,,278
2011-10-21,75,55,34,39,34,28,75,50,25,30.11,30.07,30.04,10,9,2,12,4,16,0.00,0,,254
2011-10-22,62,51,39,41,39,35,85,65,44,30.10,30.07,30.04,10,10,8,18,5,23,T,4,Rain,89
2011-10-23,75,56,36,43,37,33,92,58,23,30.06,30.00,29.93,10,10,10,22,6,26,0.00,0,,271
2011-10-24,83,61,39,42,37,34,85,54,22,30.09,29.94,29.73,10,10,10,18,8,26,0.00,0,,180
2011-10-25,64,54,44,41,39,37,76,58,40,30.09,29.82,29.62,10,10,10,31,15,37,0.00,0,,336
2011-10-26,46,41,36,41,34,31,83,68,53,30.21,30.15,30.09,10,10,10,23,12,32,0.02,7,Rain,352
2011-10-27,54,41,27,30,24,16,92,57,22,30.23,30.18,30.12,10,10,10,13,5,16,0.00,0,,263
2011-10-28,57,43,29,29,25,23,78,53,27,30.28,30.22,30.17,10,10,7,16,6,21,0.00,0,,304
2011-10-29,67,50,32,35,30,24,69,49,29,30.16,29.95,29.77,10,10,10,18,7,24,0.00,0,,201
2011-10-30,60,46,32,32,23,15,70,44,17,30.12,30.06,29.90,10,10,10,29,13,35,0.00,0,,304
2011-10-31,72,50,28,33,27,21,75,48,20,30.11,29.99,29.86,10,10,9,16,6,23,0.00,0,,182